| time (UTC) | temp C | wind direction | speed KPH | gust KPH | rain 1hr cm | rain 24hr cm | rain mn cm | humidity % | barometer mb |
| 20260903025622 | 26 | 247 | 6.4 | 8.0 | 0.00 | 0.00 | 0.00 | 80 | 4268.4 |
| 20260903025118 | 27 | 250 | 9.7 | 12.9 | 0.00 | 0.00 | 0.00 | 80 | 4268.4 |
| 20260903024613 | 26 | 239 | 9.7 | 14.5 | 0.00 | 0.00 | 0.00 | 81 | 4268.6 |
| 20260903024106 | 26 | 269 | 0.0 | 0.0 | 0.00 | 0.00 | 0.00 | 81 | 4268.7 |
| 20260903023602 | 26 | 207 | 8.0 | 12.9 | 0.00 | 0.00 | 0.00 | 81 | 4268.7 |
| 20260903023052 | 26 | 219 | 9.7 | 14.5 | 0.00 | 0.00 | 0.00 | 81 | 4268.7 |
| 20260903022551 | 26 | 238 | 8.0 | 9.7 | 0.00 | 0.00 | 0.00 | 81 | 4268.7 |
| 20260903022050 | 27 | 252 | 8.0 | 11.3 | 0.00 | 0.00 | 0.00 | 81 | 4268.8 |
| 20260903021545 | 27 | 227 | 11.3 | 14.5 | 0.00 | 0.00 | 0.00 | 80 | 4268.9 |
| 20260903021039 | 27 | 266 | 9.7 | 12.9 | 0.00 | 0.00 | 0.00 | 80 | 4268.6 |
| 20260903020536 | 27 | 255 | 9.7 | 16.1 | 0.00 | 0.00 | 0.00 | 80 | 4268.8 |
| 20260903020035 | 27 | 204 | 8.0 | 11.3 | 0.00 | 0.00 | 0.00 | 80 | 4268.6 |
| 20260903015531 | 27 | 255 | 8.0 | 9.7 | 0.00 | 0.00 | 0.00 | 80 | 4268.7 |
| 20260903015026 | 27 | 219 | 6.4 | 9.7 | 0.00 | 0.00 | 0.00 | 80 | 4268.6 |
| 20260903014525 | 27 | 219 | 14.5 | 16.1 | 0.00 | 0.00 | 0.00 | 80 | 4268.6 |
| 20260903014020 | 27 | 253 | 8.0 | 9.7 | 0.00 | 0.00 | 0.00 | 79 | 4268.8 |
| 20260903013519 | 27 | 236 | 9.7 | 12.9 | 0.00 | 0.00 | 0.00 | 79 | 4268.7 |
| 20260903013014 | 27 | 228 | 4.8 | 8.0 | 0.00 | 0.00 | 0.00 | 79 | 4268.4 |
| 20260903012514 | 27 | 248 | 0.0 | 0.0 | 0.00 | 0.00 | 0.00 | 79 | 4268.8 |
| 20260903012013 | 27 | 242 | 0.0 | 0.0 | 0.00 | 0.00 | 0.00 | 78 | 4268.8 |
| 20260903011507 | 27 | 245 | 0.0 | 0.0 | 0.00 | 0.00 | 0.00 | 79 | 4268.5 |
| 20260903011002 | 27 | 228 | 0.0 | 0.0 | 0.00 | 0.00 | 0.00 | 78 | 4268.6 |
| 20260903010457 | 27 | 268 | 0.0 | 0.0 | 0.00 | 0.00 | 0.00 | 78 | 4268.6 |
| 20260903005955 | 27 | 254 | 0.0 | 0.0 | 0.00 | 0.00 | 0.00 | 78 | 4268.6 |
| 20260903005450 | 28 | 243 | 0.0 | 0.0 | 0.00 | 0.00 | 0.00 | 78 | 4268.4 |
| 20260903004946 | 28 | 227 | 0.0 | 0.0 | 0.00 | 0.00 | 0.00 | 77 | 4268.5 |
| 20260903004441 | 28 | 267 | 0.0 | 0.0 | 0.00 | 0.00 | 0.00 | 77 | 4268.4 |
| 20260903003937 | 28 | 207 | 0.0 | 0.0 | 0.00 | 0.00 | 0.00 | 77 | 4268.5 |
| 20260903003437 | 28 | 214 | 8.0 | 12.9 | 0.00 | 0.00 | 0.00 | 76 | 4268.5 |
| 20260903002932 | 28 | 219 | 0.0 | 0.0 | 0.00 | 0.00 | 0.00 | 76 | 4268.2 |
| 20260903002427 | 28 | 225 | 0.0 | 1.6 | 0.00 | 0.00 | 0.00 | 77 | 4268.3 |
| 20260903001927 | 28 | 279 | 0.0 | 0.0 | 0.00 | 0.00 | 0.00 | 76 | 4268.2 |
| 20260903001426 | 28 | 232 | 0.0 | 0.0 | 0.00 | 0.00 | 0.00 | 76 | 4268.4 |
| 20260903000926 | 28 | 203 | 6.4 | 9.7 | 0.00 | 0.00 | 0.00 | 76 | 4268.3 |
| 20260903000421 | 28 | 258 | 0.0 | 0.0 | 0.00 | 0.00 | 0.00 | 75 | 4268.3 |
| 20260902235919 | 29 | 209 | 0.0 | 0.0 | 0.00 | 0.00 | 0.00 | 75 | 4268.5 |
| 20260902235414 | 29 | 259 | 0.0 | 0.0 | 0.00 | 0.00 | 0.00 | 74 | 4268.4 |
| 20260902234909 | 30 | 243 | 3.2 | 8.0 | 0.00 | 0.00 | 0.00 | 73 | 4268.4 |
| 20260902234404 | 30 | 228 | 0.0 | 0.0 | 0.00 | 0.00 | 0.00 | 73 | 4268.3 |
| 20260902233903 | 30 | 225 | 0.0 | 0.0 | 0.00 | 0.00 | 0.00 | 73 | 4268.4 |
| 20260902233357 | 30 | 242 | 8.0 | 9.7 | 0.00 | 0.00 | 0.00 | 72 | 4268.4 |
| 20260902232856 | 30 | 249 | 11.3 | 12.9 | 0.00 | 0.00 | 0.00 | 71 | 4268.3 |
| 20260902232351 | 30 | 231 | 4.8 | 8.0 | 0.00 | 0.00 | 0.00 | 70 | 4268.2 |
| 20260902231851 | 31 | 220 | 8.0 | 9.7 | 0.00 | 0.00 | 0.00 | 69 | 4268.6 |
| 20260902231346 | 31 | 206 | 0.0 | 0.0 | 0.00 | 0.00 | 0.00 | 69 | 4268.1 |
| 20260902230841 | 31 | 262 | 9.7 | 12.9 | 0.00 | 0.00 | 0.00 | 68 | 4268.0 |
| 20260902230340 | 31 | 247 | 14.5 | 17.7 | 0.00 | 0.00 | 0.00 | 67 | 4268.4 |
| 20260902225834 | 31 | 242 | 11.3 | 16.1 | 0.00 | 0.00 | 0.00 | 66 | 4268.4 |
| 20260902225329 | 31 | 249 | 16.1 | 17.7 | 0.00 | 0.00 | 0.00 | 66 | 4268.3 |
| 20260902224827 | 31 | 224 | 9.7 | 12.9 | 0.00 | 0.00 | 0.00 | 66 | 4268.3 |
| 20260902224323 | 32 | 233 | 8.0 | 11.3 | 0.00 | 0.00 | 0.00 | 64 | 4268.5 |
| 20260902223819 | 32 | 245 | 9.7 | 11.3 | 0.00 | 0.00 | 0.00 | 64 | 4268.3 |
| 20260902223314 | 32 | 234 | 12.9 | 16.1 | 0.00 | 0.00 | 0.00 | 63 | 4268.3 |
| 20260902222814 | 32 | 267 | 8.0 | 9.7 | 0.00 | 0.00 | 0.00 | 64 | 4268.4 |
| 20260902222313 | 32 | 253 | 16.1 | 20.9 | 0.00 | 0.00 | 0.00 | 63 | 4268.2 |
| 20260902221813 | 32 | 240 | 11.3 | 12.9 | 0.00 | 0.00 | 0.00 | 62 | 4268.6 |
| 20260902221312 | 32 | 227 | 8.0 | 9.7 | 0.00 | 0.00 | 0.00 | 63 | 4268.6 |
| 20260902220808 | 32 | 246 | 8.0 | 12.9 | 0.00 | 0.00 | 0.00 | 62 | 4268.3 |
| 20260902220307 | 32 | 267 | 12.9 | 14.5 | 0.00 | 0.00 | 0.00 | 62 | 4268.5 |
| 20260902215802 | 32 | 261 | 12.9 | 17.7 | 0.00 | 0.00 | 0.00 | 61 | 4268.4 |
| 20260902215258 | 32 | 266 | 8.0 | 11.3 | 0.00 | 0.00 | 0.00 | 61 | 4268.4 |
| 20260902214754 | 32 | 233 | 8.0 | 9.7 | 0.00 | 0.00 | 0.00 | 60 | 4268.5 |
| 20260902214253 | 32 | 268 | 14.5 | 16.1 | 0.00 | 0.00 | 0.00 | 60 | 4268.5 |
| 20260902213748 | 32 | 210 | 16.1 | 20.9 | 0.00 | 0.00 | 0.00 | 60 | 4268.6 |
| 20260902213248 | 32 | 241 | 12.9 | 14.5 | 0.00 | 0.00 | 0.00 | 60 | 4268.4 |
| 20260902212747 | 33 | 218 | 35.4 | 40.2 | 0.00 | 0.00 | 0.00 | 59 | 4268.4 |
| 20260902212244 | 33 | 239 | 17.7 | 22.5 | 0.00 | 0.00 | 0.00 | 59 | 4268.5 |
| 20260902211740 | 33 | 230 | 11.3 | 14.5 | 0.00 | 0.00 | 0.00 | 60 | 4268.6 |
| 20260902211236 | 33 | 242 | 11.3 | 14.5 | 0.00 | 0.00 | 0.00 | 60 | 4268.5 |
| 20260902210736 | 33 | 237 | 16.1 | 16.1 | 0.00 | 0.00 | 0.00 | 58 | 4268.6 |
| 20260902210231 | 33 | 232 | 19.3 | 25.7 | 0.00 | 0.00 | 0.00 | 60 | 4268.7 |
| 20260902205729 | 33 | 240 | 16.1 | 17.7 | 0.00 | 0.00 | 0.00 | 58 | 4268.7 |
| 20260902205224 | 33 | 237 | 4.8 | 16.1 | 0.00 | 0.00 | 0.00 | 59 | 4268.8 |
| 20260902204719 | 33 | 230 | 14.5 | 20.9 | 0.00 | 0.00 | 0.00 | 59 | 4268.9 |
| 20260902204215 | 33 | 252 | 17.7 | 22.5 | 0.00 | 0.00 | 0.00 | 58 | 4268.7 |
| 20260902203709 | 33 | 236 | 19.3 | 22.5 | 0.00 | 0.00 | 0.00 | 60 | 4269.0 |
| 20260902203204 | 33 | 234 | 8.0 | 11.3 | 0.00 | 0.00 | 0.00 | 59 | 4268.9 |
| 20260902202658 | 33 | 212 | 14.5 | 17.7 | 0.00 | 0.00 | 0.00 | 58 | 4269.1 |
| 20260902202155 | 33 | 223 | 8.0 | 11.3 | 0.00 | 0.00 | 0.00 | 59 | 4269.1 |
| 20260902201652 | 33 | 228 | 14.5 | 17.7 | 0.00 | 0.00 | 0.00 | 56 | 4269.3 |
| 20260902201150 | 33 | 245 | 12.9 | 14.5 | 0.00 | 0.00 | 0.00 | 57 | 4269.2 |
| 20260902200645 | 33 | 247 | 17.7 | 22.5 | 0.00 | 0.00 | 0.00 | 59 | 4269.2 |
| 20260902200142 | 33 | 236 | 12.9 | 16.1 | 0.00 | 0.00 | 0.00 | 59 | 4269.2 |
| 20260902195637 | 33 | 238 | 11.3 | 16.1 | 0.00 | 0.00 | 0.00 | 60 | 4269.4 |
| 20260902195136 | 33 | 241 | 14.5 | 17.7 | 0.00 | 0.00 | 0.00 | 57 | 4269.5 |
| 20260902194635 | 33 | 219 | 12.9 | 16.1 | 0.00 | 0.00 | 0.00 | 58 | 4269.5 |
| 20260902194130 | 33 | 220 | 9.7 | 14.5 | 0.00 | 0.00 | 0.00 | 60 | 4269.5 |
| 20260902193626 | 33 | 219 | 16.1 | 17.7 | 0.00 | 0.00 | 0.00 | 60 | 4269.4 |
| 20260902193121 | 33 | 248 | 11.3 | 16.1 | 0.00 | 0.00 | 0.00 | 58 | 4269.6 |
| 20260902192620 | 33 | 241 | 16.1 | 17.7 | 0.00 | 0.00 | 0.00 | 58 | 4269.3 |
| 20260902192119 | 33 | 197 | 12.9 | 16.1 | 0.00 | 0.00 | 0.00 | 57 | 4269.5 |
| 20260902191614 | 33 | 208 | 14.5 | 20.9 | 0.00 | 0.00 | 0.00 | 59 | 4269.6 |
| 20260902191114 | 33 | 220 | 14.5 | 17.7 | 0.00 | 0.00 | 0.00 | 61 | 4269.8 |
| 20260902190609 | 33 | 250 | 8.0 | 9.7 | 0.00 | 0.00 | 0.00 | 62 | 4269.8 |
| 20260902190104 | 33 | 244 | 11.3 | 16.1 | 0.00 | 0.00 | 0.00 | 59 | 4269.7 |
| 20260902185600 | 33 | 235 | 14.5 | 17.7 | 0.00 | 0.00 | 0.00 | 59 | 4269.9 |
| 20260902185056 | 33 | 213 | 12.9 | 14.5 | 0.00 | 0.00 | 0.00 | 61 | 4269.9 |
| 20260902184551 | 33 | 223 | 11.3 | 11.3 | 0.00 | 0.00 | 0.00 | 61 | 4269.8 |
| 20260902184046 | 33 | 214 | 11.3 | 14.5 | 0.00 | 0.00 | 0.00 | 61 | 4269.8 |
| 20260902183542 | 33 | 255 | 19.3 | 22.5 | 0.00 | 0.00 | 0.00 | 60 | 4270.0 |
| 20260902183039 | 33 | 211 | 9.7 | 14.5 | 0.00 | 0.00 | 0.00 | 64 | 4270.1 |
| 20260902182534 | 33 | 272 | 8.0 | 9.7 | 0.00 | 0.00 | 0.00 | 64 | 4270.1 |
| 20260902182031 | 33 | 226 | 12.9 | 16.1 | 0.00 | 0.00 | 0.00 | 62 | 4270.4 |
| 20260902181527 | 32 | 240 | 11.3 | 16.1 | 0.00 | 0.00 | 0.00 | 62 | 4270.2 |
| 20260902181021 | 32 | 256 | 8.0 | 11.3 | 0.00 | 0.00 | 0.00 | 63 | 4270.2 |
| 20260902180520 | 32 | 221 | 9.7 | 11.3 | 0.00 | 0.00 | 0.00 | 63 | 4270.3 |
| 20260902180017 | 32 | 225 | 11.3 | 16.1 | 0.00 | 0.00 | 0.00 | 62 | 4270.7 |
| 20260902175516 | 32 | 267 | 6.4 | 8.0 | 0.00 | 0.00 | 0.00 | 64 | 4270.4 |
| 20260902175013 | 32 | 209 | 9.7 | 11.3 | 0.00 | 0.00 | 0.00 | 63 | 4270.4 |
| 20260902174509 | 32 | 223 | 11.3 | 14.5 | 0.00 | 0.00 | 0.00 | 61 | 4270.6 |
| 20260902174004 | 32 | 228 | 14.5 | 17.7 | 0.00 | 0.00 | 0.00 | 63 | 4270.6 |
| 20260902173503 | 32 | 243 | 0.0 | 1.6 | 0.00 | 0.00 | 0.00 | 67 | 4270.4 |
| 20260902172958 | 32 | 257 | 4.8 | 9.7 | 0.00 | 0.00 | 0.00 | 64 | 4270.7 |
| 20260902172458 | 32 | 211 | 16.1 | 22.5 | 0.00 | 0.00 | 0.00 | 62 | 4270.8 |
| 20260902171953 | 32 | 252 | 8.0 | 9.7 | 0.00 | 0.00 | 0.00 | 66 | 4270.9 |
| 20260902171449 | 32 | 254 | 9.7 | 12.9 | 0.00 | 0.00 | 0.00 | 66 | 4270.7 |
| 20260902170944 | 32 | 242 | 8.0 | 9.7 | 0.00 | 0.00 | 0.00 | 66 | 4270.7 |
| 20260902170439 | 31 | 245 | 9.7 | 11.3 | 0.00 | 0.00 | 0.00 | 67 | 4270.8 |
| 20260902165935 | 31 | 254 | 9.7 | 11.3 | 0.00 | 0.00 | 0.00 | 67 | 4270.8 |
| 20260902165434 | 31 | 225 | 6.4 | 9.7 | 0.00 | 0.00 | 0.00 | 66 | 4270.8 |
| 20260902164928 | 31 | 211 | 9.7 | 12.9 | 0.00 | 0.00 | 0.00 | 68 | 4271.0 |
| 20260902164424 | 31 | 225 | 11.3 | 12.9 | 0.00 | 0.00 | 0.00 | 67 | 4271.1 |
| 20260902163923 | 31 | 263 | 6.4 | 8.0 | 0.00 | 0.00 | 0.00 | 70 | 4271.2 |
| 20260902163418 | 31 | 241 | 8.0 | 11.3 | 0.00 | 0.00 | 0.00 | 66 | 4271.2 |
| 20260902162916 | 31 | 287 | 8.0 | 11.3 | 0.00 | 0.00 | 0.00 | 70 | 4271.4 |
| 20260902162412 | 31 | 239 | 11.3 | 12.9 | 0.00 | 0.00 | 0.00 | 68 | 4271.4 |
| 20260902161911 | 30 | 258 | 0.0 | 0.0 | 0.00 | 0.00 | 0.00 | 72 | 4271.5 |
| 20260902161407 | 30 | 223 | 8.0 | 16.1 | 0.00 | 0.00 | 0.00 | 71 | 4271.4 |
| 20260902160903 | 30 | 252 | 6.4 | 11.3 | 0.00 | 0.00 | 0.00 | 72 | 4271.4 |
| 20260902160358 | 30 | 250 | 8.0 | 9.7 | 0.00 | 0.00 | 0.00 | 72 | 4271.4 |
| 20260902155856 | 30 | 228 | 9.7 | 11.3 | 0.00 | 0.00 | 0.00 | 71 | 4271.4 |
| 20260902155356 | 30 | 224 | 11.3 | 12.9 | 0.00 | 0.00 | 0.00 | 69 | 4271.1 |
| 20260902154850 | 30 | 232 | 0.0 | 1.6 | 0.00 | 0.00 | 0.00 | 72 | 4271.5 |
| 20260902154346 | 30 | 227 | 11.3 | 12.9 | 0.00 | 0.00 | 0.00 | 72 | 4271.4 |
| 20260902153845 | 30 | 236 | 8.0 | 8.0 | 0.00 | 0.00 | 0.00 | 72 | 4271.6 |
| 20260902153344 | 30 | 252 | 14.5 | 24.1 | 0.00 | 0.00 | 0.00 | 72 | 4271.5 |
| 20260902152840 | 29 | 274 | 0.0 | 1.6 | 0.00 | 0.00 | 0.00 | 74 | 4271.4 |
| 20260902152336 | 30 | 248 | 0.0 | 0.0 | 0.00 | 0.00 | 0.00 | 74 | 4271.5 |
| 20260902151831 | 29 | 247 | 4.8 | 4.8 | 0.00 | 0.00 | 0.00 | 73 | 4271.1 |
| 20260902151326 | 29 | 297 | 8.0 | 9.7 | 0.00 | 0.00 | 0.00 | 73 | 4271.2 |
| 20260902150821 | 29 | 238 | 0.0 | 1.6 | 0.00 | 0.00 | 0.00 | 74 | 4271.2 |
| 20260902150318 | 29 | 228 | 9.7 | 16.1 | 0.00 | 0.00 | 0.00 | 73 | 4271.1 |
| 20260902145817 | 29 | 220 | 17.7 | 32.2 | 0.00 | 0.00 | 0.00 | 73 | 4271.3 |
| 20260902145312 | 28 | 262 | 25.7 | 29.0 | 0.00 | 0.00 | 0.00 | 73 | 4271.3 |
| 20260902144808 | 28 | 207 | 14.5 | 20.9 | 0.00 | 0.00 | 0.00 | 75 | 4271.0 |
| 20260902144303 | 28 | 261 | 16.1 | 24.1 | 0.00 | 0.00 | 0.00 | 75 | 4271.0 |
| 20260902143758 | 28 | 271 | 17.7 | 20.9 | 0.00 | 0.00 | 0.00 | 76 | 4270.8 |
| 20260902143253 | 28 | 226 | 16.1 | 22.5 | 0.00 | 0.00 | 0.00 | 76 | 4271.0 |
| 20260902142749 | 28 | 204 | 8.0 | 12.9 | 0.00 | 0.00 | 0.00 | 77 | 4271.1 |
| 20260902142245 | 27 | 236 | 0.0 | 0.0 | 0.00 | 0.00 | 0.00 | 78 | 4271.0 |
| 20260902141744 | 27 | 221 | 1.6 | 3.2 | 0.00 | 0.00 | 0.00 | 78 | 4271.3 |
| 20260902141240 | 27 | 259 | 0.0 | 0.0 | 0.00 | 0.00 | 0.00 | 79 | 4270.9 |
| 20260902140735 | 27 | 242 | 0.0 | 0.0 | 0.00 | 0.00 | 0.00 | 79 | 4270.9 |
| 20260902140230 | 27 | 249 | 0.0 | 0.0 | 0.00 | 0.00 | 0.00 | 79 | 4270.9 |
| 20260902135729 | 27 | 229 | 0.0 | 0.0 | 0.00 | 0.00 | 0.00 | 79 | 4271.0 |
| 20260902135225 | 27 | 237 | 3.2 | 11.3 | 0.00 | 0.00 | 0.00 | 79 | 4270.9 |
| 20260902134724 | 27 | 233 | 3.2 | 8.0 | 0.00 | 0.00 | 0.00 | 79 | 4270.9 |
| 20260902134220 | 27 | 235 | 0.0 | 1.6 | 0.00 | 0.00 | 0.00 | 80 | 4270.8 |
| 20260902133715 | 26 | 254 | 6.4 | 8.0 | 0.00 | 0.00 | 0.00 | 80 | 4270.9 |
| 20260902133214 | 26 | 272 | 1.6 | 4.8 | 0.00 | 0.00 | 0.00 | 81 | 4270.9 |
| 20260902132709 | 26 | 197 | 0.0 | 0.0 | 0.00 | 0.00 | 0.00 | 81 | 4270.8 |
| 20260902132205 | 26 | 259 | 4.8 | 8.0 | 0.00 | 0.00 | 0.00 | 82 | 4270.9 |
| 20260902131700 | 25 | 275 | 0.0 | 0.0 | 0.00 | 0.00 | 0.00 | 82 | 4270.8 |
| 20260902131156 | 25 | 246 | 6.4 | 9.7 | 0.00 | 0.00 | 0.00 | 83 | 4270.9 |
| 20260902130652 | 25 | 274 | 8.0 | 16.1 | 0.00 | 0.00 | 0.00 | 83 | 4270.9 |
| 20260902130147 | 25 | 232 | 14.5 | 17.7 | 0.00 | 0.00 | 0.00 | 83 | 4271.0 |
| 20260902125637 | 25 | 201 | 4.8 | 9.7 | 0.00 | 0.00 | 0.00 | 84 | 4270.9 |
| 20260902125132 | 24 | 256 | 6.4 | 8.0 | 0.00 | 0.00 | 0.00 | 84 | 4271.0 |
| 20260902124629 | 24 | 265 | 8.0 | 11.3 | 0.00 | 0.00 | 0.00 | 84 | 4270.8 |
| 20260902124128 | 24 | 284 | 0.0 | 0.0 | 0.00 | 0.00 | 0.00 | 85 | 4270.9 |
| 20260902123625 | 23 | 234 | 0.0 | 0.0 | 0.00 | 0.00 | 0.00 | 85 | 4270.9 |
| 20260902123124 | 23 | 231 | 0.0 | 0.0 | 0.00 | 0.00 | 0.00 | 85 | 4271.2 |
| 20260902122619 | 23 | 262 | 0.0 | 0.0 | 0.00 | 0.00 | 0.00 | 85 | 4271.0 |
| 20260902122114 | 23 | 260 | 3.2 | 4.8 | 0.00 | 0.00 | 0.00 | 85 | 4271.1 |
| 20260902121609 | 23 | 249 | 1.6 | 1.6 | 0.00 | 0.00 | 0.00 | 86 | 4271.0 |
| 20260902121103 | 23 | 242 | 0.0 | 0.0 | 0.00 | 0.00 | 0.00 | 86 | 4270.9 |
| 20260902120600 | 23 | 272 | 0.0 | 0.0 | 0.00 | 0.00 | 0.00 | 86 | 4271.3 |
| 20260902120056 | 22 | 280 | 0.0 | 0.0 | 0.00 | 0.00 | 0.00 | 86 | 4271.2 |
| 20260902115551 | 22 | 276 | 0.0 | 0.0 | 0.00 | 0.00 | 0.00 | 86 | 4271.2 |
| 20260902115047 | 22 | 275 | 0.0 | 0.0 | 0.00 | 0.00 | 0.00 | 86 | 4270.8 |
| 20260902114543 | 22 | 265 | 0.0 | 0.0 | 0.00 | 0.00 | 0.00 | 86 | 4271.0 |
| 20260902114042 | 22 | 264 | 0.0 | 0.0 | 0.00 | 0.00 | 0.00 | 86 | 4270.8 |
| 20260902113538 | 22 | 267 | 0.0 | 0.0 | 0.00 | 0.00 | 0.00 | 86 | 4270.9 |
| 20260902113033 | 22 | 256 | 0.0 | 0.0 | 0.00 | 0.00 | 0.00 | 87 | 4270.9 |
| 20260902112528 | 22 | 261 | 0.0 | 0.0 | 0.00 | 0.00 | 0.00 | 87 | 4270.6 |
| 20260902112025 | 22 | 239 | 0.0 | 0.0 | 0.00 | 0.00 | 0.00 | 87 | 4270.8 |
| 20260902111521 | 22 | 268 | 0.0 | 0.0 | 0.00 | 0.00 | 0.00 | 87 | 4270.6 |
| 20260902111016 | 22 | 268 | 0.0 | 0.0 | 0.00 | 0.00 | 0.00 | 87 | 4270.6 |
| 20260902110513 | 22 | 269 | 0.0 | 0.0 | 0.00 | 0.00 | 0.00 | 87 | 4270.8 |
| 20260902110008 | 22 | 269 | 0.0 | 0.0 | 0.00 | 0.00 | 0.00 | 87 | 4270.6 |
| 20260902105502 | 22 | 269 | 0.0 | 0.0 | 0.00 | 0.00 | 0.00 | 87 | 4270.7 |
| 20260902104957 | 22 | 269 | 0.0 | 0.0 | 0.00 | 0.00 | 0.00 | 86 | 4270.7 |
| 20260902104452 | 22 | 269 | 0.0 | 0.0 | 0.00 | 0.00 | 0.00 | 86 | 4270.7 |
| 20260902103952 | 22 | 269 | 0.0 | 0.0 | 0.00 | 0.00 | 0.00 | 86 | 4270.6 |
| 20260902103448 | 22 | 269 | 0.0 | 0.0 | 0.00 | 0.00 | 0.00 | 86 | 4270.7 |
| 20260902102943 | 22 | 269 | 0.0 | 0.0 | 0.00 | 0.00 | 0.00 | 86 | 4270.3 |
| 20260902102439 | 22 | 269 | 0.0 | 0.0 | 0.00 | 0.00 | 0.00 | 86 | 4270.6 |
| 20260902101936 | 22 | 269 | 0.0 | 0.0 | 0.00 | 0.00 | 0.00 | 86 | 4270.7 |
| 20260902101430 | 23 | 268 | 0.0 | 0.0 | 0.00 | 0.00 | 0.00 | 86 | 4270.6 |
| 20260902100930 | 23 | 268 | 0.0 | 0.0 | 0.00 | 0.00 | 0.00 | 86 | 4270.4 |
| 20260902100430 | 23 | 267 | 0.0 | 0.0 | 0.00 | 0.00 | 0.00 | 86 | 4270.7 |
| 20260902095924 | 23 | 267 | 0.0 | 0.0 | 0.00 | 0.00 | 0.00 | 86 | 4270.8 |
| 20260902095419 | 23 | 267 | 0.0 | 0.0 | 0.00 | 0.00 | 0.00 | 86 | 4270.7 |
| 20260902094918 | 23 | 236 | 0.0 | 0.0 | 0.00 | 0.00 | 0.00 | 86 | 4270.2 |
| 20260902094414 | 23 | 267 | 0.0 | 0.0 | 0.00 | 0.00 | 0.00 | 86 | 4270.2 |
| 20260902093915 | 23 | 275 | 0.0 | 0.0 | 0.00 | 0.00 | 0.00 | 86 | 4270.4 |
| 20260902093409 | 23 | 263 | 0.0 | 0.0 | 0.00 | 0.00 | 0.00 | 86 | 4270.4 |
| 20260902092908 | 23 | 271 | 0.0 | 0.0 | 0.00 | 0.00 | 0.00 | 86 | 4270.4 |
| 20260902092405 | 23 | 273 | 0.0 | 0.0 | 0.00 | 0.00 | 0.00 | 86 | 4270.4 |
| 20260902091904 | 23 | 272 | 0.0 | 0.0 | 0.00 | 0.00 | 0.00 | 85 | 4270.3 |
| 20260902091400 | 23 | 253 | 0.0 | 1.6 | 0.00 | 0.00 | 0.00 | 85 | 4270.3 |
| 20260902090857 | 23 | 250 | 0.0 | 0.0 | 0.00 | 0.00 | 0.00 | 85 | 4270.4 |
| 20260902090356 | 23 | 275 | 0.0 | 0.0 | 0.00 | 0.00 | 0.00 | 86 | 4270.7 |
| 20260902085855 | 23 | 277 | 0.0 | 0.0 | 0.00 | 0.00 | 0.00 | 85 | 4270.3 |
| 20260902085350 | 23 | 264 | 3.2 | 3.2 | 0.00 | 0.00 | 0.00 | 85 | 4270.3 |
| 20260902084845 | 23 | 231 | 4.8 | 8.0 | 0.00 | 0.00 | 0.00 | 86 | 4270.4 |
| 20260902084336 | 23 | 256 | 0.0 | 0.0 | 0.00 | 0.00 | 0.00 | 86 | 4270.2 |
| 20260902083832 | 23 | 227 | 0.0 | 0.0 | 0.00 | 0.00 | 0.00 | 86 | 4270.6 |
| 20260902083331 | 23 | 245 | 4.8 | 8.0 | 0.00 | 0.00 | 0.00 | 86 | 4270.4 |
| 20260902082827 | 23 | 239 | 0.0 | 0.0 | 0.00 | 0.00 | 0.00 | 86 | 4270.3 |
| 20260902082323 | 23 | 223 | 0.0 | 0.0 | 0.00 | 0.00 | 0.00 | 86 | 4270.0 |
| 20260902081819 | 23 | 224 | 0.0 | 0.0 | 0.00 | 0.00 | 0.00 | 86 | 4270.1 |
| 20260902081314 | 23 | 272 | 1.6 | 4.8 | 0.00 | 0.00 | 0.00 | 86 | 4270.1 |
| 20260902080809 | 23 | 266 | 0.0 | 0.0 | 0.00 | 0.00 | 0.00 | 86 | 4270.1 |
| 20260902080306 | 23 | 204 | 0.0 | 0.0 | 0.00 | 0.00 | 0.00 | 85 | 4270.0 |
| 20260902075805 | 23 | 232 | 0.0 | 0.0 | 0.00 | 0.00 | 0.00 | 85 | 4270.0 |
| 20260902075306 | 23 | 255 | 0.0 | 0.0 | 0.00 | 0.00 | 0.00 | 86 | 4270.0 |
| 20260902074802 | 23 | 280 | 0.0 | 0.0 | 0.00 | 0.00 | 0.00 | 86 | 4269.9 |
| 20260902074257 | 23 | 235 | 0.0 | 0.0 | 0.00 | 0.00 | 0.00 | 86 | 4269.7 |
| 20260902073752 | 23 | 261 | 0.0 | 0.0 | 0.00 | 0.00 | 0.00 | 86 | 4269.9 |
| 20260902073248 | 23 | 247 | 0.0 | 0.0 | 0.00 | 0.00 | 0.00 | 86 | 4269.8 |
| 20260902072744 | 23 | 267 | 0.0 | 0.0 | 0.00 | 0.00 | 0.00 | 86 | 4269.6 |
| 20260902072240 | 23 | 257 | 0.0 | 0.0 | 0.00 | 0.00 | 0.00 | 86 | 4269.6 |
| 20260902071736 | 23 | 245 | 0.0 | 0.0 | 0.00 | 0.00 | 0.00 | 86 | 4269.8 |
| 20260902071231 | 23 | 264 | 0.0 | 0.0 | 0.00 | 0.00 | 0.00 | 86 | 4269.8 |
| 20260902070727 | 23 | 268 | 0.0 | 0.0 | 0.00 | 0.00 | 0.00 | 86 | 4269.8 |
| 20260902070226 | 23 | 258 | 0.0 | 0.0 | 0.00 | 0.00 | 0.00 | 86 | 4269.9 |
| 20260902065726 | 23 | 265 | 0.0 | 0.0 | 0.00 | 0.00 | 0.00 | 86 | 4269.9 |
| 20260902065221 | 23 | 265 | 0.0 | 0.0 | 0.00 | 0.00 | 0.00 | 86 | 4269.8 |
| 20260902064716 | 23 | 265 | 0.0 | 0.0 | 0.00 | 0.00 | 0.00 | 86 | 4270.0 |
| 20260902064212 | 23 | 265 | 0.0 | 0.0 | 0.00 | 0.00 | 0.00 | 86 | 4270.0 |
| 20260902063707 | 23 | 264 | 0.0 | 0.0 | 0.00 | 0.00 | 0.00 | 86 | 4269.8 |
| 20260902063202 | 23 | 264 | 0.0 | 0.0 | 0.00 | 0.00 | 0.00 | 86 | 4269.8 |
| 20260902062701 | 23 | 257 | 0.0 | 0.0 | 0.00 | 0.00 | 0.00 | 86 | 4270.0 |
| 20260902062156 | 23 | 237 | 0.0 | 0.0 | 0.00 | 0.00 | 0.00 | 86 | 4270.0 |
| 20260902061655 | 24 | 244 | 0.0 | 0.0 | 0.00 | 0.00 | 0.00 | 86 | 4270.2 |
| 20260902061151 | 24 | 250 | 0.0 | 0.0 | 0.00 | 0.00 | 0.00 | 86 | 4270.0 |
| 20260902060648 | 23 | 251 | 0.0 | 0.0 | 0.00 | 0.00 | 0.00 | 86 | 4270.1 |
| 20260902060144 | 23 | 253 | 0.0 | 0.0 | 0.00 | 0.00 | 0.00 | 86 | 4270.2 |
| 20260902055639 | 24 | 253 | 0.0 | 0.0 | 0.00 | 0.00 | 0.00 | 85 | 4270.1 |
| 20260902055135 | 24 | 253 | 0.0 | 0.0 | 0.00 | 0.00 | 0.00 | 85 | 4270.6 |
| 20260902054630 | 24 | 238 | 0.0 | 0.0 | 0.00 | 0.00 | 0.00 | 85 | 4270.1 |
| 20260902054126 | 24 | 232 | 0.0 | 0.0 | 0.00 | 0.00 | 0.00 | 85 | 4270.4 |
| 20260902053620 | 24 | 254 | 0.0 | 0.0 | 0.00 | 0.00 | 0.00 | 85 | 4270.1 |
| 20260902053115 | 24 | 253 | 0.0 | 0.0 | 0.00 | 0.00 | 0.00 | 85 | 4270.4 |
| 20260902052615 | 25 | 252 | 0.0 | 0.0 | 0.00 | 0.00 | 0.00 | 85 | 4270.3 |
| 20260902052110 | 25 | 251 | 0.0 | 0.0 | 0.00 | 0.00 | 0.00 | 85 | 4270.3 |
| 20260902051610 | 25 | 245 | 0.0 | 0.0 | 0.00 | 0.00 | 0.00 | 85 | 4270.6 |
| 20260902051109 | 25 | 262 | 0.0 | 0.0 | 0.00 | 0.00 | 0.00 | 85 | 4270.2 |
| 20260902050603 | 25 | 266 | 0.0 | 0.0 | 0.00 | 0.00 | 0.00 | 85 | 4270.3 |
| 20260902050059 | 25 | 252 | 0.0 | 0.0 | 0.00 | 0.00 | 0.00 | 85 | 4270.3 |
| 20260902045555 | 25 | 263 | 0.0 | 0.0 | 0.00 | 0.00 | 0.00 | 85 | 4270.4 |
| 20260902045051 | 25 | 276 | 0.0 | 0.0 | 0.00 | 0.00 | 0.00 | 85 | 4270.3 |
| 20260902044550 | 25 | 278 | 0.0 | 0.0 | 0.00 | 0.00 | 0.00 | 85 | 4270.2 |
| 20260902044046 | 25 | 264 | 0.0 | 0.0 | 0.00 | 0.00 | 0.00 | 85 | 4270.2 |
| 20260902043542 | 25 | 277 | 0.0 | 0.0 | 0.00 | 0.00 | 0.00 | 85 | 4270.1 |
| 20260902043037 | 25 | 280 | 0.0 | 0.0 | 0.00 | 0.00 | 0.00 | 85 | 4270.0 |
| 20260902042536 | 25 | 271 | 0.0 | 0.0 | 0.00 | 0.00 | 0.00 | 85 | 4269.8 |
| 20260902042032 | 25 | 231 | 0.0 | 0.0 | 0.00 | 0.00 | 0.00 | 85 | 4269.8 |
| 20260902041532 | 24 | 244 | 0.0 | 0.0 | 0.00 | 0.00 | 0.00 | 86 | 4269.8 |
| 20260902041027 | 24 | 241 | 0.0 | 0.0 | 0.00 | 0.00 | 0.00 | 86 | 4269.8 |
| 20260902040526 | 24 | 249 | 0.0 | 0.0 | 0.00 | 0.00 | 0.00 | 86 | 4269.7 |
| 20260902040027 | 24 | 231 | 0.0 | 0.0 | 0.00 | 0.58 | 0.58 | 87 | 4269.7 |
| 20260902035520 | 24 | 248 | 0.0 | 0.0 | 0.00 | 0.58 | 0.58 | 87 | 4269.7 |
| 20260902035015 | 24 | 241 | 0.0 | 0.0 | 0.00 | 0.58 | 0.58 | 87 | 4269.7 |
| 20260902034515 | 24 | 263 | 0.0 | 0.0 | 0.00 | 0.58 | 0.58 | 88 | 4269.8 |
| 20260902034014 | 23 | 288 | 0.0 | 0.0 | 0.00 | 0.58 | 0.58 | 88 | 4269.5 |
| 20260902033513 | 23 | 334 | 0.0 | 0.0 | 0.00 | 0.58 | 0.58 | 88 | 4269.6 |
| 20260902033008 | 23 | 334 | 0.0 | 0.0 | 0.00 | 0.58 | 0.58 | 88 | 4269.5 |
| 20260902032502 | 23 | 334 | 0.0 | 0.0 | 0.00 | 0.58 | 0.58 | 88 | 4269.0 |
| 20260902031956 | 23 | 334 | 0.0 | 0.0 | 0.00 | 0.58 | 0.58 | 87 | 4269.2 |
| 20260902031452 | 23 | 334 | 0.0 | 0.0 | 0.00 | 0.58 | 0.58 | 87 | 4269.2 |
| 20260902030948 | 23 | 334 | 0.0 | 0.0 | 0.00 | 0.58 | 0.58 | 87 | 4269.2 |
| 20260902030447 | 23 | 336 | 0.0 | 0.0 | 0.00 | 0.58 | 0.58 | 87 | 4269.6 |
| 20260902025946 | 23 | 336 | 0.0 | 0.0 | 0.00 | 0.58 | 0.58 | 87 | 4269.6 |